KR-0417 weather

Doosan We’ve Cummins New Town Apartments Heliports
Busan, Busan Gwang'yeogsi, South Korea

Public forecast

Using degrees Celsius for public forecast. Weather courtesy of forecast.io.

METAR (pilot weather report)

Closest report is Gimhae International Airport, 6.4 nm (11.9 km) WNW. Retrieved 2019/09/16 15:00 UTC (5 minutes ago):

RKPK 161500Z 01010KT 9999 FEW050 FEW200 21/15 Q1012

TAF (pilot weather forecast)

Closest forecast is Gimhae International Airport, 6.4 nm (11.9 km) WNW. Retrieved 2019/09/16 12:00 UTC (3 hours ago):

TAF RKPK 161100Z 1612/1718 33008KT 9999 SCT030 BKN200 TN19/1621Z TX28/1705Z BECMG 1615/1616 03008KT